sensor_id;sensor_type;location;lat;lon;timestamp;pressure;altitude;pressure_sealevel;temperature;humidity
18137;BME280;9194;42.632;23.298;2023-02-13T00:04:11;94233.97;;;-3.53;100.00
18137;BME280;9194;42.632;23.298;2023-02-13T00:09:13;94239.78;;;-3.51;100.00
18137;BME280;9194;42.632;23.298;2023-02-13T00:14:15;94239.06;;;-3.53;100.00
18137;BME280;9194;42.632;23.298;2023-02-13T00:19:16;94232.63;;;-3.58;100.00
18137;BME280;9194;42.632;23.298;2023-02-13T00:24:17;94245.78;;;-3.52;100.00
18137;BME280;9194;42.632;23.298;2023-02-13T00:29:19;94249.72;;;-3.60;100.00
18137;BME280;9194;42.632;23.298;2023-02-13T00:34:21;94253.38;;;-3.64;100.00
18137;BME280;9194;42.632;23.298;2023-02-13T00:39:23;94250.28;;;-3.55;100.00
18137;BME280;9194;42.632;23.298;2023-02-13T00:44:24;94252.50;;;-3.51;100.00
18137;BME280;9194;42.632;23.298;2023-02-13T00:49:26;94256.78;;;-3.51;100.00
18137;BME280;9194;42.632;23.298;2023-02-13T00:54:27;94254.31;;;-3.53;100.00
18137;BME280;9194;42.632;23.298;2023-02-13T00:59:28;94258.97;;;-3.59;100.00
18137;BME280;9194;42.632;23.298;2023-02-13T01:04:29;94262.72;;;-3.65;100.00
18137;BME280;9194;42.632;23.298;2023-02-13T01:09:31;94256.38;;;-3.72;100.00
18137;BME280;9194;42.632;23.298;2023-02-13T01:14:32;94258.13;;;-3.73;100.00
18137;BME280;9194;42.632;23.298;2023-02-13T01:19:34;94253.75;;;-3.70;100.00
18137;BME280;9194;42.632;23.298;2023-02-13T01:24:35;94259.06;;;-3.74;100.00
18137;BME280;9194;42.632;23.298;2023-02-13T01:29:36;94270.44;;;-3.79;100.00
18137;BME280;9194;42.632;23.298;2023-02-13T01:34:38;94266.94;;;-3.78;100.00
18137;BME280;9194;42.632;23.298;2023-02-13T01:39:39;94265.88;;;-3.74;100.00
18137;BME280;9194;42.632;23.298;2023-02-13T01:44:48;94278.38;;;-3.71;100.00
18137;BME280;9194;42.632;23.298;2023-02-13T01:49:58;94277.56;;;-3.72;100.00
18137;BME280;9194;42.632;23.298;2023-02-13T01:55:04;94274.59;;;-3.51;100.00
18137;BME280;9194;42.632;23.298;2023-02-13T02:00:09;94277.88;;;-3.37;100.00
18137;BME280;9194;42.632;23.298;2023-02-13T02:05:23;94279.16;;;-3.17;100.00
18137;BME280;9194;42.632;23.298;2023-02-13T02:10:26;94268.88;;;-3.03;100.00
18137;BME280;9194;42.632;23.298;2023-02-13T02:15:29;94271.06;;;-2.84;100.00
18137;BME280;9194;42.632;23.298;2023-02-13T02:42:55;94267.72;;;-3.37;100.00
18137;BME280;9194;42.632;23.298;2023-02-13T02:48:08;94286.50;;;-3.52;100.00
18137;BME280;9194;42.632;23.298;2023-02-13T02:53:41;94286.53;;;-3.66;100.00
18137;BME280;9194;42.632;23.298;2023-02-13T03:04:15;94308.28;;;-3.75;100.00
18137;BME280;9194;42.632;23.298;2023-02-13T03:09:41;94302.38;;;-3.75;100.00
18137;BME280;9194;42.632;23.298;2023-02-13T03:15:02;94303.00;;;-3.72;100.00
18137;BME280;9194;42.632;23.298;2023-02-13T03:20:14;94299.56;;;-3.70;100.00
18137;BME280;9194;42.632;23.298;2023-02-13T03:42:25;94313.03;;;-3.83;100.00
18137;BME280;9194;42.632;23.298;2023-02-13T03:47:35;94307.47;;;-3.75;100.00
18137;BME280;9194;42.632;23.298;2023-02-13T03:57:59;94302.25;;;-4.00;100.00
18137;BME280;9194;42.632;23.298;2023-02-13T04:03:28;94299.25;;;-4.07;100.00
18137;BME280;9194;42.632;23.298;2023-02-13T04:08:34;94289.13;;;-4.21;100.00
18137;BME280;9194;42.632;23.298;2023-02-13T04:13:58;94300.19;;;-4.22;100.00
18137;BME280;9194;42.632;23.298;2023-02-13T04:19:01;94306.75;;;-4.32;100.00
18137;BME280;9194;42.632;23.298;2023-02-13T04:24:03;94304.28;;;-4.34;100.00
18137;BME280;9194;42.632;23.298;2023-02-13T04:29:05;94319.72;;;-4.37;100.00
18137;BME280;9194;42.632;23.298;2023-02-13T04:34:06;94305.72;;;-4.30;100.00
18137;BME280;9194;42.632;23.298;2023-02-13T04:39:08;94308.28;;;-4.30;100.00
18137;BME280;9194;42.632;23.298;2023-02-13T04:44:09;94303.47;;;-4.34;100.00
18137;BME280;9194;42.632;23.298;2023-02-13T04:49:11;94297.38;;;-4.46;100.00
18137;BME280;9194;42.632;23.298;2023-02-13T04:54:14;94303.38;;;-4.47;100.00
18137;BME280;9194;42.632;23.298;2023-02-13T04:59:16;94307.28;;;-4.27;100.00
18137;BME280;9194;42.632;23.298;2023-02-13T05:04:20;94326.53;;;-4.09;100.00
18137;BME280;9194;42.632;23.298;2023-02-13T05:09:21;94331.72;;;-3.69;100.00
18137;BME280;9194;42.632;23.298;2023-02-13T05:14:22;94323.72;;;-3.10;100.00
18137;BME280;9194;42.632;23.298;2023-02-13T05:19:23;94317.25;;;-2.63;100.00
18137;BME280;9194;42.632;23.298;2023-02-13T05:24:25;94321.22;;;-2.72;100.00
18137;BME280;9194;42.632;23.298;2023-02-13T05:29:26;94319.03;;;-3.03;100.00
18137;BME280;9194;42.632;23.298;2023-02-13T05:34:28;94327.47;;;-3.15;100.00
18137;BME280;9194;42.632;23.298;2023-02-13T05:39:29;94330.91;;;-3.16;100.00
18137;BME280;9194;42.632;23.298;2023-02-13T05:44:31;94331.47;;;-2.99;100.00
18137;BME280;9194;42.632;23.298;2023-02-13T05:49:32;94336.69;;;-2.87;100.00
18137;BME280;9194;42.632;23.298;2023-02-13T05:54:34;94335.09;;;-2.13;100.00
18137;BME280;9194;42.632;23.298;2023-02-13T05:59:36;94338.47;;;-1.63;100.00
18137;BME280;9194;42.632;23.298;2023-02-13T06:04:37;94337.59;;;-1.38;100.00
18137;BME280;9194;42.632;23.298;2023-02-13T06:09:39;94341.41;;;-1.20;100.00
18137;BME280;9194;42.632;23.298;2023-02-13T06:14:40;94343.50;;;-0.90;100.00
18137;BME280;9194;42.632;23.298;2023-02-13T06:19:42;94334.28;;;-0.69;100.00
18137;BME280;9194;42.632;23.298;2023-02-13T06:24:43;94338.88;;;-0.50;100.00
18137;BME280;9194;42.632;23.298;2023-02-13T06:29:44;94337.41;;;-0.30;100.00
18137;BME280;9194;42.632;23.298;2023-02-13T06:34:46;94343.25;;;-0.06;100.00
18137;BME280;9194;42.632;23.298;2023-02-13T06:39:47;94341.06;;;0.12;100.00
18137;BME280;9194;42.632;23.298;2023-02-13T06:44:50;94340.59;;;0.29;100.00
18137;BME280;9194;42.632;23.298;2023-02-13T06:49:52;94341.13;;;0.44;100.00
18137;BME280;9194;42.632;23.298;2023-02-13T06:54:53;94342.28;;;0.62;100.00
18137;BME280;9194;42.632;23.298;2023-02-13T06:59:54;94343.06;;;0.73;100.00
18137;BME280;9194;42.632;23.298;2023-02-13T07:04:56;94331.31;;;0.71;100.00
18137;BME280;9194;42.632;23.298;2023-02-13T07:09:57;94333.59;;;0.85;100.00
18137;BME280;9194;42.632;23.298;2023-02-13T07:14:58;94327.44;;;0.76;100.00
18137;BME280;9194;42.632;23.298;2023-02-13T07:20:00;94334.59;;;0.62;100.00
18137;BME280;9194;42.632;23.298;2023-02-13T07:25:01;94347.88;;;0.67;100.00
18137;BME280;9194;42.632;23.298;2023-02-13T07:30:03;94354.19;;;0.40;100.00
18137;BME280;9194;42.632;23.298;2023-02-13T07:35:05;94350.09;;;0.60;100.00
18137;BME280;9194;42.632;23.298;2023-02-13T07:40:06;94346.91;;;0.79;100.00
18137;BME280;9194;42.632;23.298;2023-02-13T07:45:08;94343.34;;;1.55;100.00
18137;BME280;9194;42.632;23.298;2023-02-13T07:50:10;94340.84;;;1.44;100.00
18137;BME280;9194;42.632;23.298;2023-02-13T07:55:11;94344.84;;;1.37;100.00
18137;BME280;9194;42.632;23.298;2023-02-13T08:00:13;94343.47;;;1.53;100.00
18137;BME280;9194;42.632;23.298;2023-02-13T08:05:15;94347.72;;;1.64;99.47
18137;BME280;9194;42.632;23.298;2023-02-13T08:10:16;94340.59;;;1.47;100.00
18137;BME280;9194;42.632;23.298;2023-02-13T08:15:36;94341.28;;;1.90;98.12
18137;BME280;9194;42.632;23.298;2023-02-13T08:20:37;94333.19;;;1.95;98.66
18137;BME280;9194;42.632;23.298;2023-02-13T08:25:39;94335.31;;;2.51;97.17
18137;BME280;9194;42.632;23.298;2023-02-13T08:30:40;94346.28;;;2.53;94.46
18137;BME280;9194;42.632;23.298;2023-02-13T08:35:44;94342.69;;;2.74;92.29
